Time;durP1;ratioP1;P1;durP2;ratioP2;P2;SDS_P1;SDS_P2;PMS_P1;PMS_P2;Temp;Humidity;BMP_temperature;BMP_pressure;BME280_temperature;BME280_humidity;BME280_pressure;Samples;Min_cycle;Max_cycle;Signal;HPM_P1;HPM_P2
2021/09/13 00:02:28;;;;;;;1.33;1.23;;;23.40;54.80;;;27.68;36.06;101372.69;5093039;28;20062;-12
2021/09/13 00:04:55;;;;;;;;;;;23.40;54.60;;;27.83;35.85;101370.56;5094038;28;20072;-11
2021/09/13 00:07:21;;;;;;;1.42;1.33;;;23.50;54.70;;;27.74;35.87;101377.56;5092937;28;19916;-11
2021/09/13 00:09:47;;;;;;;1.40;1.30;;;23.40;54.60;;;27.70;35.96;101365.38;5092819;28;20056;-11
2021/09/13 00:12:13;;;;;;;1.45;1.35;;;23.40;54.60;;;27.67;36.32;101366.47;5092713;28;20137;-11
2021/09/13 00:14:39;;;;;;;1.30;1.20;;;23.40;54.50;;;27.67;36.02;101371.84;5092772;28;20060;-11
2021/09/13 00:17:07;;;;;;;1.33;1.23;;;23.40;54.60;;;27.66;36.34;101375.50;5093135;28;20068;-11
2021/09/13 00:19:33;;;;;;;1.52;1.42;;;23.40;54.50;;;27.67;36.16;101369.16;5092487;28;20559;-11
2021/09/13 00:21:59;;;;;;;1.30;1.20;;;23.50;54.60;;;27.63;36.24;101365.03;5093292;28;20056;-11
2021/09/13 00:24:25;;;;;;;1.60;1.50;;;23.40;55.10;;;27.66;36.12;101370.13;5092984;28;20036;-11
2021/09/13 00:26:51;;;;;;;1.35;1.25;;;23.40;55.10;;;27.66;36.31;101371.97;5092635;28;20105;-11
2021/09/13 00:29:17;;;;;;;1.40;1.30;;;23.40;54.60;;;27.65;36.35;101376.50;5091227;28;20432;-11
2021/09/13 00:31:45;;;;;;;1.67;1.58;;;23.40;54.60;;;27.64;36.37;101364.03;5074287;28;20121;-11
2021/09/13 00:34:12;;;;;;;1.67;1.48;;;23.40;54.60;;;27.65;36.13;101367.56;5092737;28;20048;-11
2021/09/13 00:36:40;;;;;;;1.60;1.50;;;23.40;54.60;;;27.65;36.01;101368.44;5092506;28;20048;-11
2021/09/13 00:39:06;;;;;;;1.63;1.52;;;23.40;54.60;;;27.64;36.10;101363.19;5092255;28;20055;-11
2021/09/13 00:41:34;;;;;;;1.52;1.40;;;23.40;54.60;;;27.63;36.33;101362.34;5073236;28;20471;-11
2021/09/13 00:44:01;;;;;;;1.50;1.40;;;23.40;54.60;;;27.64;36.01;101360.50;5092796;28;20478;-11
2021/09/13 00:46:27;;;;;;;1.48;1.38;;;23.40;54.60;;;27.65;36.27;101362.19;5092417;28;20054;-11
2021/09/13 00:48:53;;;;;;;1.25;1.15;;;23.40;54.60;;;27.63;36.00;101362.34;5092660;28;20044;-11
2021/09/13 00:51:19;;;;;;;1.40;1.30;;;23.40;54.50;;;27.65;36.09;101365.75;5072822;28;20449;-11
2021/09/13 00:53:45;;;;;;;1.60;1.45;;;23.40;54.50;;;27.62;36.14;101360.63;5092221;28;20050;-11
2021/09/13 00:56:11;;;;;;;1.42;1.33;;;23.40;54.60;;;27.65;36.20;101368.44;5091407;28;20043;-11
2021/09/13 00:58:37;;;;;;;1.45;1.35;;;23.40;54.60;;;27.63;36.24;101364.16;5072901;28;20049;-12
2021/09/13 01:01:05;;;;;;;1.40;1.30;;;23.40;54.50;;;27.65;35.95;101359.50;5074036;28;20417;-11
2021/09/13 01:03:32;;;;;;;1.67;1.45;;;23.40;54.50;;;27.63;36.29;101356.97;5074000;28;20062;-11
2021/09/13 01:05:59;;;;;;;1.38;1.27;;;23.40;54.50;;;27.65;36.13;101363.06;5073968;28;20438;-11
2021/09/13 01:08:25;;;;;;;1.38;1.27;;;23.40;54.50;;;27.64;36.12;101360.50;5089693;28;20041;-11
2021/09/13 01:10:54;;;;;;;1.75;1.65;;;23.40;54.60;;;27.63;36.00;101356.09;5092040;28;20048;-11
2021/09/13 01:13:20;;;;;;;1.25;1.15;;;23.40;54.70;;;27.63;36.11;101358.78;5088757;28;20055;-11
2021/09/13 01:15:45;;;;;;;1.63;1.52;;;23.40;54.60;;;27.65;36.13;101368.44;5092330;28;20048;-11
2021/09/13 01:18:11;;;;;;;1.40;1.30;;;23.40;54.60;;;27.61;36.28;101360.75;5091704;28;20104;-11
2021/09/13 01:20:38;;;;;;;1.58;1.48;;;23.40;54.60;;;27.62;36.35;101363.31;5072156;28;20045;-11
2021/09/13 01:23:20;;;;;;;1.23;1.13;;;23.40;54.60;;;27.62;36.33;101371.38;5073756;28;20062;-12
2021/09/13 01:25:46;;;;;;;1.20;1.10;;;23.40;54.60;;;27.62;36.02;101363.31;5074017;28;20147;-11
2021/09/13 01:28:19;;;;;;;1.60;1.50;;;23.40;54.60;;;27.62;36.25;101368.69;5073304;28;20516;-12
2021/09/13 01:30:45;;;;;;;1.45;1.35;;;23.40;54.60;;;27.62;36.13;101368.69;5091540;28;20079;-11
2021/09/13 01:33:13;;;;;;;2.03;1.48;;;23.40;54.60;;;27.61;36.13;101361.59;5088963;28;20074;-12
2021/09/13 01:35:39;;;;;;;1.00;1.00;;;23.40;54.60;;;27.60;36.10;101359.91;5073611;28;20406;-11
2021/09/13 01:38:05;;;;;;;1.50;1.40;;;23.40;54.60;;;27.62;36.00;101363.31;5091658;28;20056;-11
2021/09/13 01:40:31;;;;;;;1.52;1.42;;;23.40;54.60;;;27.63;36.17;101373.09;5089152;28;20198;-12
2021/09/13 01:43:02;;;;;;;1.65;1.42;;;23.40;54.60;;;27.59;36.26;101366.25;5072695;28;20142;-11
2021/09/13 01:45:31;;;;;;;1.20;1.10;;;23.40;54.70;;;27.59;36.32;101362.72;5094483;28;20081;-11
2021/09/13 01:47:56;;;;;;;1.38;1.27;;;23.40;54.60;;;27.59;36.35;101366.25;5095053;28;20410;-11
2021/09/13 01:50:23;;;;;;;1.80;1.42;;;23.40;54.60;;;27.59;36.17;101374.31;5093093;28;20059;-11
2021/09/13 01:52:48;;;;;;;1.15;1.15;;;23.40;54.60;;;27.59;36.37;101376.16;5094979;28;20116;-11
2021/09/13 01:55:14;;;;;;;1.42;1.33;;;23.40;54.60;;;27.60;36.37;101375.16;5095512;28;20477;-11
2021/09/13 01:57:40;;;;;;;1.55;1.45;;;23.40;54.60;;;27.61;36.36;101388.44;5076541;28;20142;-11
2021/09/13 02:00:10;;;;;;;1.23;1.13;;;23.40;54.70;;;27.58;36.20;101371.75;5075685;28;20482;-11
2021/09/13 02:02:45;;;;;;;1.40;1.30;;;23.40;54.60;;;27.58;36.14;101372.59;5091989;28;20045;-11
2021/09/13 02:05:17;;;;;;;1.50;1.40;;;23.40;54.60;;;27.60;36.29;101383.22;5094226;28;20040;-11
2021/09/13 02:07:48;;;;;;;1.30;1.20;;;23.40;54.60;;;27.61;36.07;101377.72;5092988;28;20428;-11
2021/09/13 02:10:14;;;;;;;1.20;1.10;;;23.40;54.70;;;27.59;36.02;101378.84;5094747;28;20051;-11
2021/09/13 02:12:40;;;;;;;1.50;1.40;;;23.40;54.60;;;27.60;36.16;101378.72;5094578;28;20504;-11
2021/09/13 02:15:07;;;;;;;1.40;1.30;;;23.40;54.70;;;27.59;36.13;101377.00;5059204;28;20049;-11
2021/09/13 02:17:36;;;;;;;1.40;1.30;;;23.40;54.60;;;27.61;36.44;101376.88;5076352;28;20544;-11
2021/09/13 02:20:05;;;;;;;1.45;1.35;;;23.40;54.60;;;27.60;36.21;101389.44;5076338;28;20044;-11
2021/09/13 02:22:31;;;;;;;1.40;1.30;;;23.40;54.70;;;27.60;36.04;101381.41;5076294;28;20501;-11
2021/09/13 02:24:57;;;;;;;1.42;1.33;;;23.40;54.70;;;27.59;36.15;101387.72;5076328;28;20077;-11
2021/09/13 02:27:24;;;;;;;1.45;1.35;;;23.40;54.60;;;27.60;36.18;101393.94;5093049;28;20051;-11
2021/09/13 02:29:52;;;;;;;1.15;1.05;;;23.40;54.70;;;27.59;36.41;101393.09;5075585;28;20070;-11
2021/09/13 02:32:17;;;;;;;1.25;1.20;;;23.30;54.60;;;27.59;36.17;101395.78;5093455;28;20044;-11
2021/09/13 02:34:43;;;;;;;1.50;1.40;;;23.40;54.70;;;27.56;36.19;101390.66;5076439;28;20042;-11
2021/09/13 02:37:09;;;;;;;1.10;1.10;;;23.30;54.60;;;27.57;36.28;101384.31;5094637;28;20044;-11
2021/09/13 02:39:37;;;;;;;1.40;1.30;;;23.40;54.60;;;27.57;36.16;101395.06;5073435;28;20099;-12
2021/09/13 02:42:04;;;;;;;1.45;1.23;;;23.30;54.60;;;27.59;36.05;101403.84;5076869;28;20044;-11
2021/09/13 02:44:30;;;;;;;1.30;1.20;;;23.40;54.60;;;27.58;36.27;101399.44;5092614;28;20048;-11
2021/09/13 02:47:00;;;;;;;1.35;1.25;;;23.40;54.60;;;27.57;36.34;101400.44;5075913;28;20043;-11
2021/09/13 02:49:26;;;;;;;1.15;1.13;;;23.40;54.60;;;27.58;36.43;101410.19;5076512;28;20093;-11
2021/09/13 02:51:52;;;;;;;1.00;1.00;;;23.40;54.60;;;27.57;36.28;101408.50;5074532;28;20448;-11
2021/09/13 02:54:18;;;;;;;1.50;1.40;;;23.30;54.60;;;27.57;36.13;101404.97;5091524;28;20120;-11
2021/09/13 02:56:45;;;;;;;1.30;1.20;;;23.30;54.60;;;27.58;36.03;101418.25;5092689;28;20052;-11
2021/09/13 02:59:11;;;;;;;1.60;1.50;;;23.30;54.60;;;27.58;36.17;101417.41;5092560;28;20082;-11
2021/09/13 03:01:37;;;;;;;1.10;1.10;;;23.30;54.60;;;27.57;36.17;101418.41;5092649;28;20458;-11
2021/09/13 03:04:04;;;;;;;1.55;1.40;;;23.40;54.60;;;27.57;36.07;101418.41;5092392;28;20062;-12
2021/09/13 03:06:29;;;;;;;1.30;1.20;;;23.40;54.60;;;27.56;36.28;101417.53;5075984;28;20139;-12
2021/09/13 03:08:55;;;;;;;1.20;1.10;;;23.40;54.60;;;27.58;36.29;101420.94;5092410;28;20046;-11
2021/09/13 03:11:23;;;;;;;1.58;1.38;;;23.30;54.60;;;27.58;36.23;101429.00;5075622;28;20409;-11
2021/09/13 03:13:49;;;;;;;1.30;1.20;;;23.30;54.60;;;27.58;36.25;101428.16;5075247;28;20048;-11
2021/09/13 03:16:15;;;;;;;2.00;1.30;;;23.30;54.60;;;27.58;36.36;101431.69;5075471;28;20040;-11
2021/09/13 03:18:42;;;;;;;1.38;1.27;;;23.30;54.50;;;27.57;36.45;101435.38;5073175;28;20048;-11
2021/09/13 03:21:09;;;;;;;1.08;1.02;;;23.30;54.60;;;27.58;36.42;101431.69;5092288;28;20417;-11
2021/09/13 03:23:35;;;;;;;1.23;1.13;;;23.30;54.60;;;27.54;36.28;101424.88;5092236;28;20044;-11
2021/09/13 03:26:02;;;;;;;1.45;1.35;;;23.40;54.70;;;27.56;36.11;101425.59;5091577;28;20059;-11
2021/09/13 03:28:31;;;;;;;1.40;1.30;;;23.40;54.60;;;27.57;35.96;101430.00;5075300;28;20044;-12
2021/09/13 03:30:56;;;;;;;1.40;1.30;;;23.30;54.60;;;27.57;36.14;101426.47;5091983;28;20100;-11
2021/09/13 03:33:23;;;;;;;1.42;1.33;;;23.30;54.60;;;27.56;36.00;101430.13;5075082;28;20130;-11
2021/09/13 03:35:50;;;;;;;1.23;1.20;;;23.40;54.60;;;27.57;36.08;101429.16;5075157;28;20468;-11
2021/09/13 03:38:16;;;;;;;1.40;1.30;;;23.30;54.50;;;27.56;36.24;101430.13;5093575;28;20052;-12
2021/09/13 03:40:42;;;;;;;1.40;1.30;;;23.40;54.60;;;27.55;36.10;101429.28;5093209;28;20105;-11
2021/09/13 03:43:08;;;;;;;1.17;1.10;;;23.40;54.60;;;27.57;36.18;101438.06;5074891;28;20547;-11
2021/09/13 03:45:33;;;;;;;1.30;1.20;;;23.30;54.60;;;27.57;36.29;101434.53;5075549;28;20040;-11
2021/09/13 03:48:18;;;;;;;1.85;1.40;;;23.30;54.60;;;27.54;36.12;101425.72;5093474;28;20440;-11
2021/09/13 03:50:46;;;;;;;1.20;1.10;;;23.30;54.60;;;27.52;36.07;101422.31;5090508;28;20048;-11
2021/09/13 03:53:13;;;;;;;1.13;1.08;;;23.30;54.60;;;27.56;36.09;101430.97;5056492;28;20052;-11
2021/09/13 03:55:38;;;;;;;1.58;1.17;;;23.40;54.60;;;27.55;36.31;101434.66;5058489;28;20040;-11
2021/09/13 03:58:05;;;;;;;1.45;1.35;;;23.30;54.60;;;27.54;36.23;101427.56;5072917;28;20045;-12
2021/09/13 04:00:31;;;;;;;1.15;1.08;;;23.30;54.60;;;27.56;36.14;101428.28;5093164;28;20052;-12
2021/09/13 04:02:57;;;;;;;1.25;1.15;;;23.30;54.60;;;27.55;36.30;101434.66;5092996;28;20051;-11
2021/09/13 04:05:25;;;;;;;1.20;1.10;;;23.30;54.60;;;27.55;36.35;101421.22;5074591;28;20056;-11
2021/09/13 04:13:53;;;;;;;1.30;1.20;;;23.30;54.60;;;27.54;36.29;101422.19;5074981;28;20143;-11
2021/09/13 04:16:24;;;;;;;1.00;0.90;;;23.30;54.60;;;27.56;36.10;101427.44;5091539;28;20044;-11
2021/09/13 04:19:09;;;;;;;1.20;1.10;;;23.30;54.60;;;27.54;36.38;101427.56;5072964;28;20076;-11
2021/09/13 04:21:58;;;;;;;1.58;1.27;;;23.30;54.60;;;27.55;36.08;101429.28;5092051;28;20040;-11
2021/09/13 04:24:35;;;;;;;1.20;1.10;;;23.30;54.50;;;27.52;36.27;101425.00;5074916;28;20098;-11
2021/09/13 04:27:30;;;;;;;1.17;1.08;;;23.30;54.60;;;27.53;36.32;101429.41;5075032;28;20478;-11
2021/09/13 04:30:09;;;;;;;1.42;1.20;;;23.30;54.60;;;27.52;36.10;101427.66;5073566;28;20076;-12
2021/09/13 04:33:03;;;;;;;1.38;1.20;;;23.30;54.60;;;27.55;36.21;101429.28;5074444;28;20474;-11
2021/09/13 04:35:48;;;;;;;1.30;1.20;;;23.30;54.60;;;27.53;36.01;101429.41;5075089;28;20131;-11
2021/09/13 04:38:24;;;;;;;1.20;1.10;;;23.30;54.60;;;27.51;36.12;101428.63;5073344;28;20086;-11
2021/09/13 04:41:10;;;;;;;1.33;1.20;;;23.30;54.60;;;27.52;36.33;101426.84;5081298;28;20563;-11
2021/09/13 04:43:55;;;;;;;1.10;1.00;;;23.30;54.60;;;27.52;36.33;101427.66;5092834;28;20405;-11
2021/09/13 04:46:41;;;;;;;1.20;1.10;;;23.30;54.60;;;27.53;36.20;101425.84;5091891;28;20044;-11
2021/09/13 04:49:39;;;;;;;1.10;1.05;;;23.30;54.60;;;27.53;36.29;101428.50;5092340;28;20505;-11
2021/09/13 04:52:19;;;;;;;1.38;1.27;;;23.30;54.60;;;27.52;36.30;101433.03;5074486;28;20044;-11
2021/09/13 04:54:50;;;;;;;1.25;1.15;;;23.30;54.60;;;27.50;36.20;101418.06;5074258;28;20136;-11
2021/09/13 04:57:16;;;;;;;1.40;1.30;;;23.30;55.20;;;27.49;36.32;101416.31;5092370;28;20041;-11
2021/09/13 04:59:42;;;;;;;1.05;1.00;;;23.30;54.60;;;27.49;36.11;101419.84;5074337;28;20055;-11
2021/09/13 05:02:08;;;;;;;0.95;0.95;;;23.30;54.60;;;27.50;36.30;101418.06;5074622;28;20047;-11
2021/09/13 05:04:35;;;;;;;1.30;1.20;;;23.30;54.60;;;27.50;36.14;101418.06;5074028;28;20051;-11
2021/09/13 05:07:02;;;;;;;1.20;1.10;;;23.30;54.60;;;27.51;36.17;101425.09;5090650;28;20051;-12
2021/09/13 05:09:28;;;;;;;1.20;1.10;;;23.30;54.60;;;27.52;36.08;101426.84;5074315;28;20052;-12
2021/09/13 05:11:55;;;;;;;1.30;1.20;;;23.30;54.60;;;27.48;36.43;101428.03;5073881;28;20131;-11
2021/09/13 05:14:23;;;;;;;1.30;1.20;;;23.30;54.50;;;27.50;36.12;101435.00;5074201;28;20051;-11
2021/09/13 05:16:50;;;;;;;1.05;1.05;;;23.30;54.60;;;27.52;36.29;101438.41;5091040;28;20044;-11
2021/09/13 05:19:18;;;;;;;1.25;1.15;;;23.30;54.60;;;27.50;36.24;101428.78;5076385;28;20150;-11
2021/09/13 05:21:44;;;;;;;1.20;1.10;;;23.30;54.60;;;27.50;36.38;101435.00;5094637;28;20043;-12
2021/09/13 05:24:14;;;;;;;1.40;1.30;;;23.30;54.50;;;27.50;36.31;101436.84;5077538;28;20397;-11
2021/09/13 05:26:41;;;;;;;1.05;1.05;;;23.30;54.50;;;27.50;36.36;101436.84;5077298;28;20048;-11
2021/09/13 05:29:07;;;;;;;1.00;1.00;;;23.30;54.60;;;27.50;36.19;101443.06;5094299;28;20043;-11
2021/09/13 05:31:33;;;;;;;1.15;1.05;;;23.30;54.60;;;27.52;36.29;101441.09;5076652;28;20044;-11
2021/09/13 05:33:59;;;;;;;1.17;1.08;;;23.30;54.60;;;27.51;36.12;101447.44;5093942;28;20113;-11
2021/09/13 05:36:25;;;;;;;1.20;1.10;;;23.30;54.50;;;27.52;36.29;101449.16;5093953;28;20396;-11
2021/09/13 05:38:52;;;;;;;0.98;0.98;;;23.30;54.50;;;27.52;36.23;101451.84;5077109;28;20052;-11
2021/09/13 05:41:47;;;;;;;1.30;1.17;;;23.30;55.00;;;27.55;36.38;101456.13;5083858;28;20051;-12
2021/09/13 05:44:14;;;;;;;1.00;1.00;;;23.30;54.50;;;27.53;36.13;101453.56;5076949;28;20138;-11
2021/09/13 05:46:41;;;;;;;1.30;1.20;;;23.30;54.50;;;27.54;36.35;101457.09;5092018;28;20482;-11
2021/09/13 05:49:10;;;;;;;1.52;1.13;;;23.30;54.40;;;27.53;36.15;101464.31;5076725;28;20420;-12
2021/09/13 05:51:40;;;;;;;1.10;0.98;;;23.40;54.50;;;27.52;36.27;101456.38;5077151;28;20500;-11
2021/09/13 05:54:09;;;;;;;1.10;1.08;;;23.30;54.40;;;27.54;35.97;101465.16;5095009;28;20040;-11
2021/09/13 05:56:37;;;;;;;1.20;1.10;;;23.30;54.40;;;27.56;36.01;101462.34;5076774;28;20399;-11
2021/09/13 05:59:04;;;;;;;1.00;1.00;;;23.30;54.40;;;27.54;36.30;101459.78;5092580;28;20052;-11
2021/09/13 06:01:30;;;;;;;1.15;1.00;;;23.30;54.40;;;27.56;36.23;101475.78;5076772;28;20040;-11
2021/09/13 06:03:56;;;;;;;1.30;1.20;;;23.30;54.50;;;27.54;36.05;101471.38;5093484;28;20052;-12
2021/09/13 06:06:29;;;;;;;1.23;1.05;;;23.30;54.40;;;27.54;36.26;101467.84;5077098;28;20071;-11
2021/09/13 06:08:55;;;;;;;0.95;0.95;;;23.40;54.40;;;27.56;36.24;101471.25;5093891;28;20051;-11
2021/09/13 06:11:26;;;;;;;1.00;1.00;;;23.30;54.40;;;27.57;36.23;101474.81;5076538;28;20397;-11
2021/09/13 06:13:51;;;;;;;0.80;0.80;;;23.40;54.40;;;27.57;35.94;101470.28;5059715;28;20064;-11
2021/09/13 06:16:17;;;;;;;1.65;1.20;;;23.40;54.40;;;27.58;36.10;101473.81;5093876;28;20286;-11
2021/09/13 06:18:47;;;;;;;1.33;1.23;;;23.30;54.20;;;27.54;36.12;101471.38;5075039;28;20052;-11
2021/09/13 06:21:16;;;;;;;1.20;1.10;;;23.30;54.30;;;27.56;36.00;101476.63;5076389;28;20048;-11
2021/09/13 06:23:44;;;;;;;1.23;1.13;;;23.30;54.30;;;27.57;35.94;101488.25;5076284;28;20050;-11
2021/09/13 06:26:11;;;;;;;1.33;1.02;;;23.40;54.30;;;27.55;36.24;101488.38;5076312;28;20040;-11
2021/09/13 06:28:37;;;;;;;1.00;1.00;;;23.40;54.30;;;27.59;36.03;101491.66;5092831;28;20036;-11
2021/09/13 06:31:05;;;;;;;1.20;1.10;;;23.40;54.30;;;27.58;35.93;101487.25;5091478;28;20105;-11
2021/09/13 06:33:34;;;;;;;0.95;0.95;;;23.40;54.30;;;27.58;36.03;101485.41;5074748;28;20049;-11
2021/09/13 06:36:02;;;;;;;1.10;1.00;;;23.40;54.20;;;27.58;35.94;101485.41;5076680;28;20048;-11
2021/09/13 06:38:31;;;;;;;1.20;1.10;;;23.40;54.20;;;27.60;35.86;101480.78;5076288;28;20040;-11
2021/09/13 06:41:00;;;;;;;1.45;0.95;;;23.40;54.10;;;27.60;36.18;101483.47;5094151;28;20060;-11
2021/09/13 06:43:29;;;;;;;0.90;0.90;;;23.40;54.10;;;27.59;35.95;101489.81;5094177;28;20071;-11
2021/09/13 06:46:10;;;;;;;1.10;1.10;;;23.40;54.10;;;27.62;35.82;101494.94;5094501;28;20460;-12
2021/09/13 06:48:38;;;;;;;1.00;0.98;;;23.40;54.10;;;27.63;36.21;101493.97;5094502;28;20477;-11
2021/09/13 06:51:06;;;;;;;1.05;0.98;;;23.40;54.10;;;27.64;36.15;101500.19;5092776;28;20401;-11
2021/09/13 06:53:31;;;;;;;1.20;1.08;;;23.50;54.10;;;27.62;35.74;101494.09;5093967;28;20051;-11
2021/09/13 06:56:00;;;;;;;1.23;1.08;;;23.40;54.00;;;27.63;35.91;101507.41;5092197;28;20082;-11
2021/09/13 06:58:26;;;;;;;1.05;1.05;;;23.50;54.20;;;27.61;36.03;101509.34;5093981;28;20074;-11
2021/09/13 07:00:54;;;;;;;1.60;1.50;;;23.40;54.10;;;27.65;36.13;101512.63;5075805;28;20115;-11
2021/09/13 07:03:20;;;;;;;0.80;0.80;;;23.40;54.10;;;27.63;35.83;101514.59;5093656;28;20052;-11
2021/09/13 07:05:47;;;;;;;1.13;1.05;;;23.50;54.10;;;27.66;36.11;101519.72;5094191;28;20044;-11
2021/09/13 07:08:13;;;;;;;1.20;1.10;;;23.50;54.10;;;27.66;35.74;101525.09;5091248;28;20088;-12
2021/09/13 07:10:38;;;;;;;1.00;1.00;;;23.50;54.10;;;27.66;36.14;101528.63;5093828;28;20052;-11
2021/09/13 07:13:05;;;;;;;0.88;0.88;;;23.50;54.10;;;27.66;35.99;101525.09;5093654;28;20067;-11
2021/09/13 07:15:32;;;;;;;1.08;1.05;;;23.50;54.10;;;27.65;35.80;101532.31;5094111;28;20071;-12
2021/09/13 07:18:01;;;;;;;0.90;0.90;;;23.50;54.10;;;27.67;36.01;101534.88;5093423;28;20106;-12
2021/09/13 07:20:27;;;;;;;1.05;1.00;;;23.50;54.10;;;27.67;35.97;101527.66;5093578;28;20055;-12
2021/09/13 07:22:53;;;;;;;1.05;0.95;;;23.50;54.00;;;27.69;35.77;101543.66;5093395;28;20509;-9
2021/09/13 07:25:19;;;;;;;0.93;0.93;;;23.50;54.00;;;27.67;36.03;101541.09;5093573;28;20040;-10
2021/09/13 07:27:45;;;;;;;0.93;0.90;;;23.50;54.10;;;27.67;36.00;101537.56;5093510;28;20051;-10
2021/09/13 07:30:12;;;;;;;1.17;0.93;;;23.50;54.00;;;27.69;36.10;101546.34;5093578;28;20054;-10
2021/09/13 07:32:39;;;;;;;1.10;1.00;;;23.50;54.00;;;27.69;36.13;101546.34;5075162;28;20143;-10
2021/09/13 07:35:07;;;;;;;1.13;1.02;;;23.50;54.00;;;27.70;36.05;101553.44;5093470;28;20055;-10
2021/09/13 07:37:35;;;;;;;1.00;0.95;;;23.50;54.00;;;27.69;35.74;101554.41;5075080;28;20126;-10
2021/09/13 07:40:00;;;;;;;0.90;0.90;;;23.50;54.00;;;27.71;35.89;101555.97;5092595;28;20050;-11
2021/09/13 07:42:27;;;;;;;1.63;1.20;;;23.50;54.00;;;27.70;36.08;101550.75;5093293;28;20043;-11
2021/09/13 07:44:52;;;;;;;0.95;0.95;;;23.50;54.00;;;27.70;35.87;101556.97;5058353;28;20063;-11
2021/09/13 07:47:19;;;;;;;1.30;1.20;;;23.50;53.90;;;27.72;35.94;101555.00;5075022;28;20402;-11
2021/09/13 07:49:45;;;;;;;1.30;1.05;;;23.50;53.90;;;27.71;35.99;101557.81;5093492;28;20047;-11
2021/09/13 07:52:11;;;;;;;1.60;0.90;;;23.50;53.90;;;27.72;35.74;101571.13;5093093;28;20040;-10
2021/09/13 07:54:37;;;;;;;1.13;1.02;;;23.50;53.90;;;27.74;35.63;101568.31;5092923;28;20044;-11
2021/09/13 07:57:02;;;;;;;1.45;1.13;;;23.50;53.90;;;27.73;35.75;101567.47;5093131;28;20040;-11
2021/09/13 07:59:28;;;;;;;1.98;1.23;;;23.50;53.80;;;27.72;35.89;101570.28;5093010;28;20130;-10
2021/09/13 08:01:54;;;;;;;1.20;1.10;;;23.50;53.90;;;27.73;35.71;101571.97;5093303;28;20512;-10
2021/09/13 08:04:20;;;;;;;1.30;1.20;;;23.50;53.80;;;27.71;35.73;101577.47;5093399;28;20059;-10
2021/09/13 08:06:45;;;;;;;1.33;1.08;;;23.50;53.80;;;27.73;35.95;101572.84;5092905;28;20044;-10
2021/09/13 08:09:11;;;;;;;0.88;0.88;;;23.50;53.80;;;27.75;35.66;101575.41;5093445;28;20128;-10
2021/09/13 08:11:37;;;;;;;1.55;1.30;;;23.60;53.80;;;27.74;35.82;101573.69;5092839;28;20040;-11
2021/09/13 08:14:04;;;;;;;0.75;0.75;;;23.60;53.80;;;27.75;35.97;101578.09;5092711;28;20055;-11
2021/09/13 08:16:30;;;;;;;1.50;0.90;;;23.60;53.80;;;27.77;36.01;101578.00;5092859;28;20040;-11
2021/09/13 08:18:58;;;;;;;1.05;1.00;;;23.60;53.80;;;27.76;35.77;101582.50;5092677;28;20157;-12
2021/09/13 08:21:26;;;;;;;1.27;1.17;;;23.60;53.80;;;27.76;35.67;101589.69;5092730;28;20051;-11
2021/09/13 08:23:53;;;;;;;1.10;1.00;;;23.60;53.90;;;27.75;35.86;101588.84;5092605;28;20138;-11
2021/09/13 08:26:19;;;;;;;0.80;0.73;;;23.60;53.80;;;27.74;35.57;101589.81;5093070;28;20177;-11
2021/09/13 08:28:44;;;;;;;0.98;0.98;;;23.60;53.80;;;27.76;35.77;101598.59;5092746;28;20052;-11
2021/09/13 08:31:11;;;;;;;1.65;1.13;;;23.60;53.70;;;27.76;35.70;101603.97;5092556;28;20076;-11
2021/09/13 08:33:37;;;;;;;9.60;2.00;;;23.70;53.60;;;27.78;35.91;101604.72;5092751;28;20040;-12
2021/09/13 08:36:04;;;;;;;15.52;3.28;;;23.70;53.50;;;27.78;35.51;101604.72;5092655;28;20039;-12
2021/09/13 08:38:30;;;;;;;18.27;4.63;;;23.70;53.40;;;27.79;35.63;101606.44;5092552;28;20048;-11
2021/09/13 08:40:56;;;;;;;33.90;6.80;;;23.70;53.50;;;27.82;35.78;101616.09;5092940;28;20056;-11
2021/09/13 08:43:23;;;;;;;37.65;8.10;;;23.70;53.60;;;27.79;35.73;101611.81;5092206;28;20158;-11
2021/09/13 08:45:59;;;;;;;40.63;8.05;;;23.70;53.60;;;27.82;35.71;101618.78;5092346;28;20040;-11
2021/09/13 08:48:58;;;;;;;40.50;8.30;;;23.70;54.20;;;27.83;35.65;101623.16;5092057;28;20044;-11
2021/09/13 08:51:30;;;;;;;53.75;10.20;;;23.70;53.80;;;27.83;35.92;101632.09;5093611;28;20078;-11
2021/09/13 08:54:06;;;;;;;58.20;12.63;;;23.70;53.80;;;27.80;35.94;101632.34;5095909;28;20051;-11
2021/09/13 08:56:43;;;;;;;70.43;10.68;;;23.80;53.80;;;27.84;35.86;101627.56;5077753;28;20459;-11
2021/09/13 08:59:14;;;;;;;74.55;11.40;;;23.70;53.70;;;27.84;36.05;101635.63;5096123;28;20474;-12
2021/09/13 09:01:41;;;;;;;66.15;11.35;;;23.80;53.80;;;27.87;35.73;101640.78;5096243;28;20047;-11
2021/09/13 09:04:12;;;;;;;68.18;13.95;;;23.80;53.70;;;27.86;35.87;101637.19;5095624;28;20055;-11
2021/09/13 09:06:43;;;;;;;;;;;23.80;53.60;;;28.03;35.62;101637.72;5096100;28;20055;-11
2021/09/13 09:09:20;;;;;;;66.60;15.48;;;23.80;53.60;;;27.94;35.81;101639.31;5095562;28;19923;-12
2021/09/13 09:12:00;;;;;;;87.38;22.63;;;23.90;53.60;;;27.93;35.81;101637.59;5095698;28;20048;-11
2021/09/13 09:14:41;;;;;;;87.45;22.90;;;23.80;53.50;;;27.92;35.76;101635.88;5077570;28;20052;-11
2021/09/13 09:17:13;;;;;;;114.43;24.17;;;23.90;53.50;;;27.92;35.80;101635.88;5094120;28;20085;-11
2021/09/13 09:19:40;;;;;;;90.45;25.95;;;23.90;53.50;;;27.93;35.71;101640.28;5095475;28;20051;-11
2021/09/13 09:22:27;;;;;;;84.72;25.85;;;23.90;53.40;;;27.93;35.70;101648.34;5095807;28;20405;-11
2021/09/13 09:24:55;;;;;;;96.05;23.58;;;23.90;53.30;;;27.93;35.82;101640.28;5095379;28;20513;-11
2021/09/13 09:27:23;;;;;;;80.95;21.15;;;24.00;53.10;;;27.90;35.84;101638.69;5095290;28;20056;-16
2021/09/13 09:29:49;;;;;;;66.47;20.58;;;24.00;53.10;;;27.93;35.69;101640.28;5095727;28;20048;-11
2021/09/13 09:32:27;;;;;;;84.88;21.23;;;24.10;53.00;;;27.96;35.90;101652.66;5095708;28;20068;-11
2021/09/13 09:34:55;;;;;;;67.10;18.73;;;24.10;53.10;;;27.96;35.87;101655.34;5095901;28;20052;-11
2021/09/13 09:37:24;;;;;;;72.00;18.63;;;24.10;53.10;;;27.96;35.57;101649.97;5095083;28;20516;-12
2021/09/13 09:39:56;;;;;;;50.28;16.25;;;24.10;53.10;;;27.94;35.73;101643.84;5095474;28;20554;-11
2021/09/13 09:42:36;;;;;;;58.58;15.73;;;24.10;53.10;;;27.95;35.69;101650.91;5095470;28;20055;-11
2021/09/13 09:45:26;;;;;;;64.17;14.40;;;24.10;53.00;;;27.94;35.84;101652.75;5095033;28;20048;-11
2021/09/13 09:48:09;;;;;;;87.75;16.17;;;23.70;53.70;;;27.84;35.81;101647.22;5092478;28;20054;-11
2021/09/13 09:50:35;;;;;;;120.05;19.55;;;23.50;54.00;;;27.76;36.15;101640.75;5095076;28;20048;-11
2021/09/13 09:53:16;;;;;;;45.90;9.38;;;23.40;54.10;;;27.68;35.83;101633.28;5094500;28;20080;-11
2021/09/13 09:55:44;;;;;;;34.50;6.18;;;23.50;54.00;;;27.70;35.85;101639.41;5094248;28;20052;-11
2021/09/13 09:58:13;;;;;;;30.67;7.20;;;23.50;53.80;;;27.69;36.14;101633.16;5094969;28;20091;-12
2021/09/13 10:00:39;;;;;;;44.95;10.85;;;23.60;53.70;;;27.71;36.01;101641.13;5094775;28;20044;-11
2021/09/13 10:03:07;;;;;;;36.78;8.43;;;23.60;53.60;;;27.72;35.98;101640.16;5093764;28;20048;-11
2021/09/13 10:05:34;;;;;;;37.60;8.52;;;23.50;53.60;;;27.70;35.85;101634.03;5094843;28;20051;-11
2021/09/13 10:08:00;;;;;;;90.00;12.70;;;23.50;53.50;;;27.72;36.00;101632.09;5094790;28;20084;-11
2021/09/13 10:10:29;;;;;;;50.15;7.00;;;23.50;53.60;;;27.71;35.39;101636.59;5094762;28;20374;-12
2021/09/13 10:13:00;;;;;;;44.28;7.10;;;23.70;52.40;;;27.69;34.91;101635.00;5095037;28;20048;-11
2021/09/13 10:15:28;;;;;;;41.78;6.80;;;23.40;52.30;;;27.65;34.96;101634.41;5094603;28;20050;-11
2021/09/13 10:17:54;;;;;;;30.42;7.95;;;23.20;53.20;;;27.66;35.43;101637.94;5094643;28;20052;-11
2021/09/13 10:20:22;;;;;;;45.30;8.10;;;23.40;53.50;;;27.67;35.38;101639.66;5094780;28;20457;-11
2021/09/13 10:22:53;;;;;;;30.27;6.65;;;23.60;53.00;;;27.76;35.64;101630.00;5094499;28;20048;-11
2021/09/13 10:25:19;;;;;;;33.83;6.95;;;23.80;52.70;;;27.83;35.20;101639.28;5093158;28;20048;-11